TimeEST,TemperatureF,Dew PointF,Humidity,Sea Level PressureIn,VisibilityMPH,Wind Direction,Wind SpeedMPH,Gust SpeedMPH,PrecipitationIn,Events,Conditions,WindDirDegrees,DateUTC
12:51 AM,39.9,30.0,68,30.30,10.0,East,4.6,-,N/A,,Clear,80,2013-02-10 05:51:00
1:51 AM,43.0,30.9,62,30.30,10.0,East,5.8,-,N/A,,Clear,100,2013-02-10 06:51:00
2:51 AM,41.0,30.0,65,30.32,10.0,Calm,Calm,-,N/A,,Clear,0,2013-02-10 07:51:00
3:51 AM,43.0,28.9,58,30.31,10.0,Calm,Calm,-,N/A,,Clear,0,2013-02-10 08:51:00
4:51 AM,39.0,30.0,70,30.31,10.0,East,6.9,-,N/A,,Clear,90,2013-02-10 09:51:00
5:51 AM,39.0,30.9,73,30.32,10.0,ENE,5.8,-,N/A,,Clear,70,2013-02-10 10:51:00
6:51 AM,36.0,28.9,76,30.34,10.0,East,6.9,-,N/A,,Clear,90,2013-02-10 11:51:00
7:51 AM,36.0,30.0,79,30.35,10.0,East,5.8,-,N/A,,Clear,80,2013-02-10 12:51:00
8:51 AM,42.1,30.9,65,30.35,10.0,ENE,9.2,-,N/A,,Clear,70,2013-02-10 13:51:00
9:51 AM,48.9,33.1,54,30.39,10.0,East,5.8,16.1,N/A,,Clear,100,2013-02-10 14:51:00
10:51 AM,55.0,34.0,45,30.37,10.0,ESE,9.2,-,N/A,,Clear,120,2013-02-10 15:51:00
11:51 AM,57.0,37.0,47,30.33,10.0,ESE,10.4,19.6,N/A,,Clear,110,2013-02-10 16:51:00
12:51 PM,60.1,39.9,47,30.26,10.0,SE,9.2,17.3,N/A,,Clear,130,2013-02-10 17:51:00
1:51 PM,64.0,42.1,45,30.23,10.0,ESE,10.4,19.6,N/A,,Scattered Clouds,120,2013-02-10 18:51:00
2:51 PM,63.0,41.0,45,30.19,10.0,SE,8.1,16.1,N/A,,Overcast,140,2013-02-10 19:51:00
3:51 PM,61.0,42.1,50,30.16,10.0,SE,8.1,19.6,N/A,,Overcast,140,2013-02-10 20:51:00
4:51 PM,60.1,43.0,53,30.14,10.0,ESE,9.2,-,N/A,,Overcast,120,2013-02-10 21:51:00
5:51 PM,60.1,44.1,55,30.09,10.0,East,9.2,-,0.00,,Overcast,100,2013-02-10 22:51:00
6:51 PM,57.0,48.0,72,30.14,6.0,NE,8.1,-,0.01,Rain,Light Rain,40,2013-02-10 23:51:00
7:51 PM,51.1,50.0,96,30.21,3.0,North,15.0,-,0.20,Rain,Heavy Rain,10,2013-02-11 00:51:00
7:58 PM,50.0,48.2,94,30.18,2.5,NE,16.1,-,0.04,Rain,Heavy Rain,40,2013-02-11 00:58:00
8:11 PM,50.0,48.2,94,30.18,2.5,NE,13.8,23.0,0.10,Rain,Rain,40,2013-02-11 01:11:00
8:23 PM,48.2,48.2,100,30.19,3.0,NE,10.4,-,0.15,Rain,Rain,40,2013-02-11 01:23:00
8:37 PM,48.2,48.2,100,30.20,2.5,NE,12.7,19.6,0.20,Rain,Rain,40,2013-02-11 01:37:00
8:51 PM,48.9,48.0,97,30.22,2.5,NNE,10.4,-,0.25,Rain,Rain,30,2013-02-11 01:51:00
8:59 PM,48.2,48.2,100,30.22,2.5,NNE,8.1,-,0.03,Rain,Rain,20,2013-02-11 01:59:00
9:24 PM,48.2,48.2,100,30.23,3.0,North,8.1,-,0.09,Rain,Rain,10,2013-02-11 02:24:00
9:34 PM,48.2,48.2,100,30.24,2.5,North,8.1,-,0.12,Rain,Rain,10,2013-02-11 02:34:00
9:51 PM,48.9,48.0,97,30.24,2.5,NE,6.9,-,0.16,Rain,Rain,40,2013-02-11 02:51:00
9:59 PM,48.2,46.4,93,30.23,3.0,ENE,8.1,-,0.02,Rain,Light Rain,60,2013-02-11 02:59:00
10:14 PM,48.2,48.2,100,30.22,3.0,ENE,8.1,-,0.04,Rain,Light Rain,60,2013-02-11 03:14:00
10:51 PM,48.0,48.0,100,30.20,3.0,East,10.4,-,0.11,Rain,Light Rain,90,2013-02-11 03:51:00
11:49 PM,48.2,48.2,100,30.15,4.0,ESE,9.2,-,0.10,Rain,Light Rain,110,2013-02-11 04:49:00
11:51 PM,48.9,48.0,97,30.15,4.0,ESE,11.5,-,0.11,Rain,Light Rain,110,2013-02-11 04:51:00